sensor_id;sensor_type;location;lat;lon;timestamp;P1;durP1;ratioP1;P2;durP2;ratioP2
31808;SDS011;18379;48.208;-1.518;2023-03-01T00:05:23;52.27;;;39.17;;
31808;SDS011;18379;48.208;-1.518;2023-03-01T00:10:24;43.90;;;38.57;;
31808;SDS011;18379;48.208;-1.518;2023-03-01T00:15:26;41.50;;;37.07;;
31808;SDS011;18379;48.208;-1.518;2023-03-01T00:20:27;49.10;;;40.63;;
31808;SDS011;18379;48.208;-1.518;2023-03-01T00:25:28;51.93;;;40.77;;
31808;SDS011;18379;48.208;-1.518;2023-03-01T00:30:28;49.57;;;40.87;;
31808;SDS011;18379;48.208;-1.518;2023-03-01T00:35:29;49.13;;;38.87;;
31808;SDS011;18379;48.208;-1.518;2023-03-01T00:40:33;47.20;;;38.70;;
31808;SDS011;18379;48.208;-1.518;2023-03-01T00:45:35;59.67;;;46.37;;
31808;SDS011;18379;48.208;-1.518;2023-03-01T00:50:35;56.23;;;42.37;;
31808;SDS011;18379;48.208;-1.518;2023-03-01T00:55:36;57.60;;;42.87;;
31808;SDS011;18379;48.208;-1.518;2023-03-01T01:00:37;49.57;;;39.80;;
31808;SDS011;18379;48.208;-1.518;2023-03-01T01:05:38;56.30;;;40.90;;
31808;SDS011;18379;48.208;-1.518;2023-03-01T01:10:38;59.77;;;43.17;;
31808;SDS011;18379;48.208;-1.518;2023-03-01T01:15:39;55.03;;;40.83;;
31808;SDS011;18379;48.208;-1.518;2023-03-01T01:20:40;58.93;;;45.20;;
31808;SDS011;18379;48.208;-1.518;2023-03-01T01:25:41;62.73;;;49.80;;
31808;SDS011;18379;48.208;-1.518;2023-03-01T01:30:42;46.60;;;37.17;;
31808;SDS011;18379;48.208;-1.518;2023-03-01T01:35:44;60.07;;;47.37;;
31808;SDS011;18379;48.208;-1.518;2023-03-01T01:40:45;53.30;;;40.80;;
31808;SDS011;18379;48.208;-1.518;2023-03-01T01:45:47;54.77;;;41.83;;
31808;SDS011;18379;48.208;-1.518;2023-03-01T01:50:57;42.07;;;35.60;;
31808;SDS011;18379;48.208;-1.518;2023-03-01T01:56:10;40.97;;;34.57;;
31808;SDS011;18379;48.208;-1.518;2023-03-01T02:01:16;45.03;;;37.40;;
31808;SDS011;18379;48.208;-1.518;2023-03-01T02:11:21;44.03;;;35.63;;
31808;SDS011;18379;48.208;-1.518;2023-03-01T02:16:22;42.10;;;35.27;;
31808;SDS011;18379;48.208;-1.518;2023-03-01T02:26:42;50.80;;;39.13;;
31808;SDS011;18379;48.208;-1.518;2023-03-01T02:31:49;36.80;;;33.10;;
31808;SDS011;18379;48.208;-1.518;2023-03-01T02:36:53;38.20;;;34.10;;
31808;SDS011;18379;48.208;-1.518;2023-03-01T02:41:57;38.27;;;34.03;;
31808;SDS011;18379;48.208;-1.518;2023-03-01T02:47:00;41.37;;;34.27;;
31808;SDS011;18379;48.208;-1.518;2023-03-01T02:57:39;42.43;;;35.83;;
31808;SDS011;18379;48.208;-1.518;2023-03-01T03:02:42;43.83;;;36.80;;
31808;SDS011;18379;48.208;-1.518;2023-03-01T03:07:43;45.03;;;37.00;;
31808;SDS011;18379;48.208;-1.518;2023-03-01T03:12:54;49.60;;;40.80;;
31808;SDS011;18379;48.208;-1.518;2023-03-01T03:18:03;35.40;;;31.93;;
31808;SDS011;18379;48.208;-1.518;2023-03-01T03:23:06;46.00;;;37.20;;
31808;SDS011;18379;48.208;-1.518;2023-03-01T03:28:07;42.53;;;36.07;;
31808;SDS011;18379;48.208;-1.518;2023-03-01T03:33:10;45.57;;;36.83;;
31808;SDS011;18379;48.208;-1.518;2023-03-01T03:38:13;45.87;;;36.60;;
31808;SDS011;18379;48.208;-1.518;2023-03-01T03:43:20;42.27;;;35.53;;
31808;SDS011;18379;48.208;-1.518;2023-03-01T03:48:22;36.90;;;32.83;;
31808;SDS011;18379;48.208;-1.518;2023-03-01T03:53:24;35.27;;;31.77;;
31808;SDS011;18379;48.208;-1.518;2023-03-01T03:58:26;40.70;;;32.73;;
31808;SDS011;18379;48.208;-1.518;2023-03-01T04:03:28;39.80;;;33.33;;
31808;SDS011;18379;48.208;-1.518;2023-03-01T04:08:30;38.23;;;33.13;;
31808;SDS011;18379;48.208;-1.518;2023-03-01T04:13:31;34.80;;;31.27;;
31808;SDS011;18379;48.208;-1.518;2023-03-01T04:18:32;38.17;;;34.00;;
31808;SDS011;18379;48.208;-1.518;2023-03-01T04:23:32;34.80;;;30.60;;
31808;SDS011;18379;48.208;-1.518;2023-03-01T04:28:37;38.40;;;33.10;;
31808;SDS011;18379;48.208;-1.518;2023-03-01T04:38:48;39.47;;;32.67;;
31808;SDS011;18379;48.208;-1.518;2023-03-01T04:43:49;39.00;;;32.07;;
31808;SDS011;18379;48.208;-1.518;2023-03-01T04:48:50;38.73;;;32.47;;
31808;SDS011;18379;48.208;-1.518;2023-03-01T04:53:51;35.97;;;31.47;;
31808;SDS011;18379;48.208;-1.518;2023-03-01T04:58:53;33.13;;;29.63;;
31808;SDS011;18379;48.208;-1.518;2023-03-01T05:03:54;33.60;;;29.80;;
31808;SDS011;18379;48.208;-1.518;2023-03-01T05:08:55;34.20;;;30.77;;
31808;SDS011;18379;48.208;-1.518;2023-03-01T05:13:56;32.57;;;29.47;;
31808;SDS011;18379;48.208;-1.518;2023-03-01T05:18:57;34.20;;;30.70;;
31808;SDS011;18379;48.208;-1.518;2023-03-01T05:23:58;35.27;;;31.23;;
31808;SDS011;18379;48.208;-1.518;2023-03-01T05:28:59;33.70;;;30.43;;
31808;SDS011;18379;48.208;-1.518;2023-03-01T05:34:01;33.07;;;29.73;;
31808;SDS011;18379;48.208;-1.518;2023-03-01T05:39:02;35.23;;;31.17;;
31808;SDS011;18379;48.208;-1.518;2023-03-01T05:44:03;33.50;;;29.97;;
31808;SDS011;18379;48.208;-1.518;2023-03-01T05:49:07;34.23;;;30.63;;
31808;SDS011;18379;48.208;-1.518;2023-03-01T05:54:07;41.80;;;34.33;;
31808;SDS011;18379;48.208;-1.518;2023-03-01T05:59:11;40.30;;;33.50;;
31808;SDS011;18379;48.208;-1.518;2023-03-01T06:04:13;41.10;;;34.17;;
31808;SDS011;18379;48.208;-1.518;2023-03-01T06:09:14;37.20;;;31.93;;
31808;SDS011;18379;48.208;-1.518;2023-03-01T06:14:15;40.47;;;33.57;;
31808;SDS011;18379;48.208;-1.518;2023-03-01T06:19:16;41.03;;;33.67;;
31808;SDS011;18379;48.208;-1.518;2023-03-01T06:24:17;40.40;;;33.63;;
31808;SDS011;18379;48.208;-1.518;2023-03-01T06:29:18;44.23;;;34.70;;
31808;SDS011;18379;48.208;-1.518;2023-03-01T06:34:18;43.47;;;33.40;;
31808;SDS011;18379;48.208;-1.518;2023-03-01T06:39:19;71.63;;;40.40;;
31808;SDS011;18379;48.208;-1.518;2023-03-01T06:44:20;36.47;;;31.50;;
31808;SDS011;18379;48.208;-1.518;2023-03-01T06:49:22;62.67;;;36.57;;
31808;SDS011;18379;48.208;-1.518;2023-03-01T06:54:23;44.13;;;35.67;;
31808;SDS011;18379;48.208;-1.518;2023-03-01T06:59:25;38.10;;;31.53;;
31808;SDS011;18379;48.208;-1.518;2023-03-01T07:04:25;43.73;;;33.27;;
31808;SDS011;18379;48.208;-1.518;2023-03-01T07:09:28;37.83;;;32.13;;
31808;SDS011;18379;48.208;-1.518;2023-03-01T07:14:29;37.13;;;33.10;;
31808;SDS011;18379;48.208;-1.518;2023-03-01T07:19:30;35.40;;;31.57;;
31808;SDS011;18379;48.208;-1.518;2023-03-01T07:24:31;33.17;;;29.90;;
31808;SDS011;18379;48.208;-1.518;2023-03-01T07:29:32;50.50;;;37.40;;
31808;SDS011;18379;48.208;-1.518;2023-03-01T07:34:33;34.73;;;30.80;;
31808;SDS011;18379;48.208;-1.518;2023-03-01T07:39:34;30.03;;;27.20;;
31808;SDS011;18379;48.208;-1.518;2023-03-01T07:44:35;69.87;;;49.57;;
31808;SDS011;18379;48.208;-1.518;2023-03-01T07:49:36;34.10;;;30.50;;
31808;SDS011;18379;48.208;-1.518;2023-03-01T07:54:37;33.37;;;29.90;;
31808;SDS011;18379;48.208;-1.518;2023-03-01T07:59:38;35.10;;;31.50;;
31808;SDS011;18379;48.208;-1.518;2023-03-01T08:04:41;60.80;;;47.10;;
31808;SDS011;18379;48.208;-1.518;2023-03-01T08:09:44;64.60;;;48.07;;
31808;SDS011;18379;48.208;-1.518;2023-03-01T08:14:46;55.13;;;44.53;;
31808;SDS011;18379;48.208;-1.518;2023-03-01T08:19:47;60.37;;;47.90;;
31808;SDS011;18379;48.208;-1.518;2023-03-01T08:24:48;62.93;;;50.40;;
31808;SDS011;18379;48.208;-1.518;2023-03-01T08:29:49;68.77;;;50.73;;
31808;SDS011;18379;48.208;-1.518;2023-03-01T08:34:54;53.77;;;46.30;;
31808;SDS011;18379;48.208;-1.518;2023-03-01T08:39:56;34.90;;;31.83;;
31808;SDS011;18379;48.208;-1.518;2023-03-01T08:45:01;34.73;;;31.73;;
31808;SDS011;18379;48.208;-1.518;2023-03-01T08:50:03;33.23;;;30.63;;
31808;SDS011;18379;48.208;-1.518;2023-03-01T08:55:04;34.17;;;31.43;;
31808;SDS011;18379;48.208;-1.518;2023-03-01T09:00:06;40.03;;;36.10;;
31808;SDS011;18379;48.208;-1.518;2023-03-01T09:05:08;39.13;;;35.07;;
31808;SDS011;18379;48.208;-1.518;2023-03-01T09:10:09;42.73;;;38.80;;
31808;SDS011;18379;48.208;-1.518;2023-03-01T09:15:10;43.90;;;38.80;;
31808;SDS011;18379;48.208;-1.518;2023-03-01T09:20:11;43.00;;;38.93;;
31808;SDS011;18379;48.208;-1.518;2023-03-01T09:25:12;43.07;;;39.10;;
31808;SDS011;18379;48.208;-1.518;2023-03-01T09:30:13;42.70;;;38.63;;
31808;SDS011;18379;48.208;-1.518;2023-03-01T09:35:14;46.43;;;41.63;;
31808;SDS011;18379;48.208;-1.518;2023-03-01T09:40:23;50.47;;;45.17;;
31808;SDS011;18379;48.208;-1.518;2023-03-01T09:50:39;40.20;;;36.20;;
31808;SDS011;18379;48.208;-1.518;2023-03-01T09:55:51;47.57;;;42.97;;
31808;SDS011;18379;48.208;-1.518;2023-03-01T10:00:59;41.33;;;37.87;;
31808;SDS011;18379;48.208;-1.518;2023-03-01T10:11:22;42.33;;;38.43;;
31808;SDS011;18379;48.208;-1.518;2023-03-01T10:16:38;43.10;;;39.30;;
31808;SDS011;18379;48.208;-1.518;2023-03-01T10:21:45;59.40;;;53.17;;
31808;SDS011;18379;48.208;-1.518;2023-03-01T10:26:50;59.37;;;52.97;;
31808;SDS011;18379;48.208;-1.518;2023-03-01T10:31:56;44.47;;;40.73;;
31808;SDS011;18379;48.208;-1.518;2023-03-01T10:37:19;42.83;;;39.10;;
31808;SDS011;18379;48.208;-1.518;2023-03-01T10:42:31;61.50;;;54.97;;
31808;SDS011;18379;48.208;-1.518;2023-03-01T10:47:34;43.73;;;40.27;;
31808;SDS011;18379;48.208;-1.518;2023-03-01T10:52:36;44.53;;;40.83;;
31808;SDS011;18379;48.208;-1.518;2023-03-01T10:57:40;51.87;;;46.93;;
31808;SDS011;18379;48.208;-1.518;2023-03-01T11:02:41;49.00;;;44.50;;
31808;SDS011;18379;48.208;-1.518;2023-03-01T11:07:49;49.07;;;44.67;;
31808;SDS011;18379;48.208;-1.518;2023-03-01T11:18:19;48.87;;;44.63;;
31808;SDS011;18379;48.208;-1.518;2023-03-01T11:23:21;50.73;;;46.10;;
31808;SDS011;18379;48.208;-1.518;2023-03-01T11:28:24;50.10;;;46.17;;
31808;SDS011;18379;48.208;-1.518;2023-03-01T11:33:34;53.13;;;47.57;;
31808;SDS011;18379;48.208;-1.518;2023-03-01T11:38:43;52.93;;;48.10;;
31808;SDS011;18379;48.208;-1.518;2023-03-01T11:55:15;48.70;;;44.83;;
31808;SDS011;18379;48.208;-1.518;2023-03-01T12:06:12;46.83;;;43.13;;
31808;SDS011;18379;48.208;-1.518;2023-03-01T12:22:52;47.07;;;43.63;;
31808;SDS011;18379;48.208;-1.518;2023-03-01T12:33:37;47.30;;;43.83;;
31808;SDS011;18379;48.208;-1.518;2023-03-01T12:49:24;56.97;;;51.63;;
31808;SDS011;18379;48.208;-1.518;2023-03-01T12:54:29;52.73;;;48.17;;
31808;SDS011;18379;48.208;-1.518;2023-03-01T13:10:41;53.77;;;48.50;;
31808;SDS011;18379;48.208;-1.518;2023-03-01T13:15:48;53.63;;;49.13;;
31808;SDS011;18379;48.208;-1.518;2023-03-01T13:20:54;53.07;;;48.73;;
31808;SDS011;18379;48.208;-1.518;2023-03-01T13:26:04;49.03;;;45.50;;
31808;SDS011;18379;48.208;-1.518;2023-03-01T13:46:44;53.23;;;49.13;;
31808;SDS011;18379;48.208;-1.518;2023-03-01T13:51:46;54.60;;;50.37;;
31808;SDS011;18379;48.208;-1.518;2023-03-01T13:56:47;57.77;;;53.23;;
31808;SDS011;18379;48.208;-1.518;2023-03-01T14:01:52;56.03;;;51.73;;
31808;SDS011;18379;48.208;-1.518;2023-03-01T14:23:12;55.10;;;50.90;;
31808;SDS011;18379;48.208;-1.518;2023-03-01T14:28:26;53.30;;;49.30;;
31808;SDS011;18379;48.208;-1.518;2023-03-01T14:33:29;56.43;;;52.23;;
31808;SDS011;18379;48.208;-1.518;2023-03-01T14:38:43;57.53;;;52.90;;
31808;SDS011;18379;48.208;-1.518;2023-03-01T14:43:46;52.40;;;48.80;;
31808;SDS011;18379;48.208;-1.518;2023-03-01T14:48:54;54.77;;;50.53;;
31808;SDS011;18379;48.208;-1.518;2023-03-01T14:54:01;62.03;;;57.03;;
31808;SDS011;18379;48.208;-1.518;2023-03-01T14:59:02;58.30;;;53.70;;
31808;SDS011;18379;48.208;-1.518;2023-03-01T15:04:04;60.07;;;55.30;;
31808;SDS011;18379;48.208;-1.518;2023-03-01T15:09:06;62.60;;;57.40;;
31808;SDS011;18379;48.208;-1.518;2023-03-01T15:19:41;61.50;;;56.07;;
31808;SDS011;18379;48.208;-1.518;2023-03-01T15:24:45;57.70;;;53.17;;
31808;SDS011;18379;48.208;-1.518;2023-03-01T15:29:49;60.10;;;55.10;;
31808;SDS011;18379;48.208;-1.518;2023-03-01T15:34:52;58.60;;;54.07;;
31808;SDS011;18379;48.208;-1.518;2023-03-01T15:39:54;59.10;;;54.20;;
31808;SDS011;18379;48.208;-1.518;2023-03-01T15:50:37;59.67;;;54.87;;
31808;SDS011;18379;48.208;-1.518;2023-03-01T15:55:40;63.57;;;58.10;;
31808;SDS011;18379;48.208;-1.518;2023-03-01T16:00:42;76.47;;;68.50;;
31808;SDS011;18379;48.208;-1.518;2023-03-01T16:05:43;57.70;;;53.10;;
31808;SDS011;18379;48.208;-1.518;2023-03-01T16:10:44;57.43;;;53.03;;
31808;SDS011;18379;48.208;-1.518;2023-03-01T16:15:45;63.43;;;58.20;;
31808;SDS011;18379;48.208;-1.518;2023-03-01T16:20:46;58.70;;;53.73;;
31808;SDS011;18379;48.208;-1.518;2023-03-01T16:25:48;56.53;;;52.00;;
31808;SDS011;18379;48.208;-1.518;2023-03-01T16:30:49;59.30;;;54.40;;
31808;SDS011;18379;48.208;-1.518;2023-03-01T16:35:51;59.60;;;54.47;;
31808;SDS011;18379;48.208;-1.518;2023-03-01T16:40:52;58.40;;;53.60;;
31808;SDS011;18379;48.208;-1.518;2023-03-01T16:45:53;57.40;;;52.50;;
31808;SDS011;18379;48.208;-1.518;2023-03-01T16:50:58;55.23;;;50.87;;
31808;SDS011;18379;48.208;-1.518;2023-03-01T16:56:01;65.60;;;59.53;;
31808;SDS011;18379;48.208;-1.518;2023-03-01T17:01:09;62.97;;;57.63;;
31808;SDS011;18379;48.208;-1.518;2023-03-01T17:06:14;63.43;;;57.83;;
31808;SDS011;18379;48.208;-1.518;2023-03-01T17:11:17;49.00;;;45.70;;
31808;SDS011;18379;48.208;-1.518;2023-03-01T17:16:19;54.87;;;50.00;;
31808;SDS011;18379;48.208;-1.518;2023-03-01T17:21:20;47.03;;;43.70;;
31808;SDS011;18379;48.208;-1.518;2023-03-01T17:26:21;48.10;;;44.57;;
31808;SDS011;18379;48.208;-1.518;2023-03-01T17:31:22;49.87;;;45.60;;
31808;SDS011;18379;48.208;-1.518;2023-03-01T17:36:24;47.53;;;43.87;;
31808;SDS011;18379;48.208;-1.518;2023-03-01T17:41:25;46.13;;;42.80;;
31808;SDS011;18379;48.208;-1.518;2023-03-01T17:46:26;48.50;;;44.67;;
31808;SDS011;18379;48.208;-1.518;2023-03-01T17:51:26;48.37;;;44.50;;
31808;SDS011;18379;48.208;-1.518;2023-03-01T17:56:27;49.00;;;44.97;;
31808;SDS011;18379;48.208;-1.518;2023-03-01T18:01:28;50.93;;;46.37;;
31808;SDS011;18379;48.208;-1.518;2023-03-01T18:06:29;48.80;;;44.77;;
31808;SDS011;18379;48.208;-1.518;2023-03-01T18:11:31;50.60;;;46.23;;
31808;SDS011;18379;48.208;-1.518;2023-03-01T18:16:34;51.13;;;46.47;;
31808;SDS011;18379;48.208;-1.518;2023-03-01T18:21:36;50.97;;;46.13;;
31808;SDS011;18379;48.208;-1.518;2023-03-01T18:26:36;50.27;;;45.77;;
31808;SDS011;18379;48.208;-1.518;2023-03-01T18:31:37;49.67;;;45.17;;
31808;SDS011;18379;48.208;-1.518;2023-03-01T18:36:40;50.90;;;46.43;;
31808;SDS011;18379;48.208;-1.518;2023-03-01T18:41:42;50.27;;;45.50;;
31808;SDS011;18379;48.208;-1.518;2023-03-01T18:46:47;43.83;;;40.37;;
31808;SDS011;18379;48.208;-1.518;2023-03-01T18:51:48;44.23;;;40.93;;
31808;SDS011;18379;48.208;-1.518;2023-03-01T18:56:49;45.33;;;41.70;;
31808;SDS011;18379;48.208;-1.518;2023-03-01T19:01:50;44.77;;;41.27;;
31808;SDS011;18379;48.208;-1.518;2023-03-01T19:06:52;44.03;;;40.77;;
31808;SDS011;18379;48.208;-1.518;2023-03-01T19:11:54;44.37;;;41.00;;
31808;SDS011;18379;48.208;-1.518;2023-03-01T19:17:00;47.00;;;43.00;;
31808;SDS011;18379;48.208;-1.518;2023-03-01T19:22:03;49.97;;;45.37;;
31808;SDS011;18379;48.208;-1.518;2023-03-01T19:27:07;46.60;;;42.63;;
31808;SDS011;18379;48.208;-1.518;2023-03-01T19:32:12;49.07;;;44.67;;
31808;SDS011;18379;48.208;-1.518;2023-03-01T19:37:13;48.77;;;44.23;;
31808;SDS011;18379;48.208;-1.518;2023-03-01T19:42:14;47.17;;;42.80;;
31808;SDS011;18379;48.208;-1.518;2023-03-01T19:47:15;52.77;;;47.77;;
31808;SDS011;18379;48.208;-1.518;2023-03-01T19:52:18;45.30;;;41.37;;
31808;SDS011;18379;48.208;-1.518;2023-03-01T19:57:18;45.57;;;41.53;;
31808;SDS011;18379;48.208;-1.518;2023-03-01T20:02:19;45.47;;;41.47;;
31808;SDS011;18379;48.208;-1.518;2023-03-01T20:07:20;44.97;;;41.23;;
31808;SDS011;18379;48.208;-1.518;2023-03-01T20:12:21;43.83;;;40.13;;
31808;SDS011;18379;48.208;-1.518;2023-03-01T20:17:22;45.07;;;41.17;;
31808;SDS011;18379;48.208;-1.518;2023-03-01T20:22:23;44.47;;;40.30;;
31808;SDS011;18379;48.208;-1.518;2023-03-01T20:27:24;45.23;;;41.23;;
31808;SDS011;18379;48.208;-1.518;2023-03-01T20:32:25;43.50;;;39.57;;
31808;SDS011;18379;48.208;-1.518;2023-03-01T20:37:26;46.43;;;42.13;;
31808;SDS011;18379;48.208;-1.518;2023-03-01T20:42:27;46.73;;;42.33;;
31808;SDS011;18379;48.208;-1.518;2023-03-01T20:47:28;47.07;;;42.70;;
31808;SDS011;18379;48.208;-1.518;2023-03-01T20:52:29;48.50;;;43.50;;
31808;SDS011;18379;48.208;-1.518;2023-03-01T20:57:30;46.23;;;41.90;;
31808;SDS011;18379;48.208;-1.518;2023-03-01T21:02:31;47.63;;;42.87;;
31808;SDS011;18379;48.208;-1.518;2023-03-01T21:07:32;45.50;;;41.30;;
31808;SDS011;18379;48.208;-1.518;2023-03-01T21:12:33;45.80;;;41.43;;
31808;SDS011;18379;48.208;-1.518;2023-03-01T21:17:34;43.73;;;39.63;;
31808;SDS011;18379;48.208;-1.518;2023-03-01T21:22:35;49.50;;;44.30;;
31808;SDS011;18379;48.208;-1.518;2023-03-01T21:27:36;46.07;;;41.30;;
31808;SDS011;18379;48.208;-1.518;2023-03-01T21:32:37;48.20;;;43.13;;
31808;SDS011;18379;48.208;-1.518;2023-03-01T21:37:38;46.67;;;41.70;;
31808;SDS011;18379;48.208;-1.518;2023-03-01T21:42:39;47.33;;;42.53;;
31808;SDS011;18379;48.208;-1.518;2023-03-01T21:47:43;48.30;;;43.07;;
31808;SDS011;18379;48.208;-1.518;2023-03-01T21:52:44;47.10;;;41.90;;
31808;SDS011;18379;48.208;-1.518;2023-03-01T21:57:45;42.37;;;38.43;;
31808;SDS011;18379;48.208;-1.518;2023-03-01T22:02:46;40.47;;;36.87;;
31808;SDS011;18379;48.208;-1.518;2023-03-01T22:07:46;40.17;;;36.33;;
31808;SDS011;18379;48.208;-1.518;2023-03-01T22:12:47;41.53;;;37.63;;
31808;SDS011;18379;48.208;-1.518;2023-03-01T22:17:50;39.37;;;35.90;;
31808;SDS011;18379;48.208;-1.518;2023-03-01T22:22:51;39.20;;;35.77;;
31808;SDS011;18379;48.208;-1.518;2023-03-01T22:27:52;42.37;;;38.33;;
31808;SDS011;18379;48.208;-1.518;2023-03-01T22:32:52;39.93;;;36.20;;
31808;SDS011;18379;48.208;-1.518;2023-03-01T22:37:53;41.77;;;37.47;;
31808;SDS011;18379;48.208;-1.518;2023-03-01T22:42:54;39.23;;;36.07;;
31808;SDS011;18379;48.208;-1.518;2023-03-01T22:47:57;38.53;;;35.27;;
31808;SDS011;18379;48.208;-1.518;2023-03-01T22:52:59;40.93;;;37.27;;
31808;SDS011;18379;48.208;-1.518;2023-03-01T22:58:01;42.00;;;37.73;;
31808;SDS011;18379;48.208;-1.518;2023-03-01T23:03:03;45.77;;;40.97;;
31808;SDS011;18379;48.208;-1.518;2023-03-01T23:08:06;50.40;;;43.50;;
31808;SDS011;18379;48.208;-1.518;2023-03-01T23:13:17;40.07;;;36.23;;
31808;SDS011;18379;48.208;-1.518;2023-03-01T23:18:19;35.87;;;32.97;;
31808;SDS011;18379;48.208;-1.518;2023-03-01T23:23:27;37.00;;;33.60;;
31808;SDS011;18379;48.208;-1.518;2023-03-01T23:28:34;36.47;;;33.07;;
31808;SDS011;18379;48.208;-1.518;2023-03-01T23:33:42;37.07;;;33.87;;
31808;SDS011;18379;48.208;-1.518;2023-03-01T23:38:45;36.47;;;33.20;;
31808;SDS011;18379;48.208;-1.518;2023-03-01T23:43:51;35.23;;;32.27;;
31808;SDS011;18379;48.208;-1.518;2023-03-01T23:49:00;37.90;;;34.03;;
31808;SDS011;18379;48.208;-1.518;2023-03-01T23:54:03;37.93;;;34.23;;
31808;SDS011;18379;48.208;-1.518;2023-03-01T23:59:06;37.07;;;33.37;;
